Beatrice, NE

11:24 PM CDT on May 04, 2015 (GMT -0500)
Beatrice Municipal | | Change Station
CLOSE
Current Station
Airport
Location: Beatrice,
Elevation: 1322 ft
Nearby Weather Stations

Elev 1322 ft 40.30 °N, 96.75 °W | Updated 9 minutes ago

Rain
Rain
62 °F
Feels Like 62 °F
N
6
Wind Variable Wind from NNE

Today
High -- | Low -- °F
--% Chance of Precip.
Yesterday
High -- | Low -- °F
Precip. -- in
6:23 AM 8:25 PM
Full, 99% visible
Pressure 30.10 in
Visibility 2.5 miles
Clouds Mostly Cloudy 700 ft
Mostly Cloudy 3400 ft
Overcast 4900 ft
Dew Point 61 °F
Humidity 96%
Rainfall 0.28 in
Snow Depth Not available.
UV 0 out of 12
Pollen 4.30 out of 12
Air Quality Not available.
Flu Activity Local Activity
METAR KBIE 050415Z AUTO 03005KT 340V080 2 1/2SM +TSRA BKN007 BKN034 OVC049 17/16 A3010 RMK AO2 LTG DSNT ALQS P0013 T01670161

More Conditions Fewer Conditions

Pressure 30.10 in
Visibility 2.5 miles
Clouds Mostly Cloudy 700 ft
Mostly Cloudy 3400 ft
Overcast 4900 ft
Dew Point 61 °F
Humidity 96%
Rainfall 0.28 in
Snow Depth Not available.
UV 0 out of 12
Pollen 4.30 out of 12
Air Quality Not available.
Flu Activity Local Activity
METAR KBIE 050415Z AUTO 03005KT 340V080 2 1/2SM +TSRA BKN007 BKN034 OVC049 17/16 A3010 RMK AO2 LTG DSNT ALQS P0013 T01670161

More Conditions Fewer Conditions

Nepal has a long way to go to dig out and rebuild from a devastating earthquake. We have teamed up with several charities and organizations to make contributing to the relief effort as easy as possible.
How you can help: Portlight Strategies | Red Cross

10-Day Weather Forecast

Almanac

Astronomy

May. 04, 2015 Rise Set
Actual Time
Civil Twilight
Nautical Twilight
Astronomical Twilight
Moon
Length of Visible Light
Length of Day
Tomorrow will be .
, % of the Moon is Illuminated

Today's Extremes

State Highs State Lows

Community

WunderPhotos

Upload Photos

1,818,815 photos uploaded!

WunderBlogs® & News

Nearby

Air Quality

  Air Quality AQ Index Pollutant
Not available.

Snow Depth

Station Depth Elevation

Earthquake Activity

City Distance Mag. Time & Date
Minimum magnitude displayed is 2.5.

Coastal Water Temperatures

Place Temperature

Stations

Nearby Weather Stations

Station Location Temp. Windchill Dew Point Humidity Wind Precip. Elev Updated Type